DEA weather

Dera Ghazi Khan Airport
Dera Ghazi Khan, Punjab, Pakistan

Public forecast

Using degrees Celsius for public forecast. Weather courtesy of forecast.io.

METAR (pilot weather report)

Closest report is Multan International Airport, 50.6 nm (93.7 km) ENE. Retrieved 2019/05/24 10:30 UTC (47 seconds ago):

OPMT 241030Z 31004KT 5000 HZ FEW040 35/17 Q1004 NOSIG

TAF (pilot weather forecast)

Forecast is more than 12 hours old.

Retrieved 2019/05/23 18:10 UTC (16 hours ago):

TAF OPDG 231610Z 2318/2412 36010KT 4000 FU SCT040 SCT100 TN23/2401Z TX38/24/2410Z PROB30 TEMPO 2318/2322 36030KT 0800 DSTS/RA FEW030CB SCT040 BKN100